Time;durP1;ratioP1;P1;durP2;ratioP2;P2;SDS_P1;SDS_P2;PMS_P1;PMS_P2;Temp;Humidity;BMP_temperature;BMP_pressure;BME280_temperature;BME280_humidity;BME280_pressure;Samples;Min_cycle;Max_cycle;Signal;HPM_P1;HPM_P2
2020/12/30 00:02:25;;;;;;;2.60;2.40;;;3.50;99.90;;;;;;4847123;29;20217;-84
2020/12/30 00:04:58;;;;;;;3.10;2.28;;;3.50;99.90;;;;;;4881429;29;20240;-83
2020/12/30 00:08:06;;;;;;;2.15;2.05;;;3.50;99.90;;;;;;4888045;29;20257;-83
2020/12/30 00:10:49;;;;;;;2.55;2.35;;;3.60;99.90;;;;;;4865016;29;20217;-83
2020/12/30 00:13:23;;;;;;;2.92;2.72;;;3.50;99.90;;;;;;4866975;29;20249;-83
2020/12/30 00:16:06;;;;;;;;;;;;;;;;;;;;;
2020/12/30 00:18:37;;;;;;;2.42;2.22;;;3.60;99.90;;;;;;4882951;29;20333;-83
2020/12/30 00:21:15;;;;;;;;;;;;;;;;;;;;;
2020/12/30 00:23:53;;;;;;;3.72;2.20;;;3.50;99.90;;;;;;4886263;29;20636;-83
2020/12/30 00:26:52;;;;;;;2.88;2.67;;;3.60;99.90;;;;;;4889171;29;20245;-82
2020/12/30 00:29:29;;;;;;;3.67;2.45;;;3.60;99.90;;;;;;4889523;29;20676;-83
2020/12/30 00:32:25;;;;;;;;;;;;;;;;;;;;;
2020/12/30 00:35:23;;;;;;;;;;;;;;;;;;;;;
2020/12/30 00:38:15;;;;;;;2.97;2.78;;;3.30;99.90;;;;;;4881475;29;20287;-82
2020/12/30 00:41:21;;;;;;;;;;;;;;;;;;;;;
2020/12/30 00:44:37;;;;;;;;;;;;;;;;;;;;;
2020/12/30 00:47:46;;;;;;;4.60;4.00;;;3.20;99.90;;;;;;4847637;29;20320;-83
2020/12/30 00:53:41;;;;;;;2.90;2.70;;;3.30;99.90;;;;;;4868474;29;20590;-83
2020/12/30 01:00:20;;;;;;;;;;;;;;;;;;;;;
2020/12/30 01:06:11;;;;;;;2.63;2.42;;;3.10;99.90;;;;;;4890294;29;20220;-84
2020/12/30 01:09:21;;;;;;;;;;;;;;;;;;;;;
2020/12/30 01:12:33;;;;;;;3.60;3.25;;;3.20;99.90;;;;;;4888730;29;20295;-84
2020/12/30 01:15:05;;;;;;;3.03;2.72;;;3.10;99.90;;;;;;4873905;29;20213;-84
2020/12/30 01:18:05;;;;;;;;;;;;;;;;;;;;;
2020/12/30 01:20:38;;;;;;;3.67;2.88;;;3.20;99.90;;;;;;4883948;29;20299;-83
2020/12/30 01:23:16;;;;;;;4.55;3.55;;;3.30;99.90;;;;;;4889132;29;20215;-83
2020/12/30 01:25:59;;;;;;;3.45;3.15;;;3.30;99.90;;;;;;4890086;29;20867;-83
2020/12/30 01:28:38;;;;;;;5.75;3.58;;;3.20;99.90;;;;;;4892223;29;20200;-83
2020/12/30 01:31:06;;;;;;;2.83;2.63;;;3.30;99.90;;;;;;4892895;29;20198;-83
2020/12/30 01:33:35;;;;;;;3.20;2.60;;;3.20;99.90;;;;;;4892792;29;20204;-84
2020/12/30 01:36:06;;;;;;;3.50;3.20;;;3.20;99.90;;;;;;4891814;29;20220;-83
2020/12/30 01:38:36;;;;;;;3.25;2.95;;;3.20;99.90;;;;;;4891209;29;20236;-83
2020/12/30 01:41:34;;;;;;;2.53;2.33;;;3.10;99.90;;;;;;4891981;29;20220;-83
2020/12/30 01:47:04;;;;;;;3.05;2.80;;;3.10;99.90;;;;;;4872486;29;20262;-86
2020/12/30 01:49:30;;;;;;;2.50;2.33;;;3.20;99.90;;;;;;4893473;29;20219;-84
2020/12/30 01:51:57;;;;;;;2.13;2.03;;;3.20;99.90;;;;;;4892133;29;20204;-83
2020/12/30 01:54:27;;;;;;;3.00;2.53;;;3.20;99.90;;;;;;4891487;29;20589;-83
2020/12/30 01:56:53;;;;;;;2.85;2.60;;;3.20;99.90;;;;;;4891907;29;20295;-83
2020/12/30 01:59:27;;;;;;;2.75;2.25;;;3.30;99.90;;;;;;4892601;29;20228;-83
2020/12/30 02:01:57;;;;;;;3.40;3.10;;;3.30;99.90;;;;;;4890301;29;20201;-83
2020/12/30 02:04:28;;;;;;;2.17;2.00;;;3.30;99.90;;;;;;4892009;29;20196;-83
2020/12/30 02:06:55;;;;;;;3.10;2.72;;;3.30;99.90;;;;;;4891564;29;20236;-83
2020/12/30 02:09:22;;;;;;;2.55;2.40;;;3.30;99.90;;;;;;4893443;29;20215;-83
2020/12/30 02:11:51;;;;;;;5.88;2.60;;;3.30;99.90;;;;;;4889577;29;20460;-86
2020/12/30 02:14:17;;;;;;;4.43;1.95;;;3.40;99.90;;;;;;4891456;29;20244;-84
2020/12/30 02:16:49;;;;;;;3.03;2.72;;;3.40;99.90;;;;;;4891276;29;20231;-82
2020/12/30 02:19:15;;;;;;;2.47;2.28;;;3.30;99.90;;;;;;4893827;29;20232;-84
2020/12/30 02:21:42;;;;;;;2.28;2.05;;;3.30;99.90;;;;;;4891699;29;20208;-82
2020/12/30 02:24:11;;;;;;;3.60;2.92;;;3.30;99.90;;;;;;4892574;29;20244;-84
2020/12/30 02:26:38;;;;;;;2.53;2.33;;;3.30;99.90;;;;;;4892296;29;20242;-83
2020/12/30 02:29:04;;;;;;;2.38;2.17;;;3.30;99.90;;;;;;4893353;29;20212;-83
2020/12/30 02:31:30;;;;;;;2.00;1.90;;;3.30;99.90;;;;;;4892477;29;20236;-82
2020/12/30 02:33:57;;;;;;;2.50;1.92;;;3.30;99.90;;;;;;4891913;29;20211;-84
2020/12/30 02:36:23;;;;;;;1.95;1.85;;;3.30;99.90;;;;;;4893495;29;20239;-84
2020/12/30 02:38:52;;;;;;;2.72;2.53;;;3.30;99.90;;;;;;4890610;29;20313;-84
2020/12/30 02:41:18;;;;;;;5.35;3.33;;;3.30;99.90;;;;;;4891416;29;20223;-82
2020/12/30 02:43:45;;;;;;;3.25;2.88;;;3.40;99.90;;;;;;4891536;29;20245;-84
2020/12/30 02:46:12;;;;;;;2.78;2.58;;;3.40;99.90;;;;;;4891005;29;20233;-84
2020/12/30 02:48:38;;;;;;;2.47;1.95;;;3.40;99.90;;;;;;4892777;29;20244;-83
2020/12/30 02:51:04;;;;;;;2.65;2.30;;;3.30;99.90;;;;;;4891088;29;20216;-82
2020/12/30 02:53:30;;;;;;;2.25;2.15;;;3.30;99.90;;;;;;4894697;29;20240;-83
2020/12/30 02:55:56;;;;;;;2.58;2.33;;;3.40;99.90;;;;;;4891563;29;20212;-83
2020/12/30 02:58:23;;;;;;;2.00;1.90;;;3.40;99.90;;;;;;4891169;29;20235;-83
2020/12/30 03:00:53;;;;;;;3.00;2.80;;;3.40;99.90;;;;;;4891905;29;20714;-84
2020/12/30 03:03:31;;;;;;;;;;;;;;;;;;;;;
2020/12/30 03:06:06;;;;;;;2.20;2.10;;;3.50;99.90;;;;;;4885169;29;20296;-84
2020/12/30 03:08:33;;;;;;;6.65;2.42;;;3.50;99.90;;;;;;4894466;29;20230;-84
2020/12/30 03:11:00;;;;;;;2.72;2.50;;;3.50;99.90;;;;;;4890505;29;20582;-84
2020/12/30 03:13:28;;;;;;;2.35;2.15;;;3.40;99.90;;;;;;4890573;29;20611;-84
2020/12/30 03:15:55;;;;;;;2.20;2.00;;;3.40;99.90;;;;;;4889287;29;20212;-82
2020/12/30 03:18:22;;;;;;;5.05;2.60;;;3.50;99.90;;;;;;4890862;29;20239;-84
2020/12/30 03:20:48;;;;;;;2.33;2.22;;;3.50;99.90;;;;;;4891173;29;20216;-84
2020/12/30 03:23:14;;;;;;;2.15;2.05;;;3.50;99.90;;;;;;4890349;29;20211;-84
2020/12/30 03:25:42;;;;;;;6.32;3.70;;;3.50;99.90;;;;;;4890410;29;20216;-84
2020/12/30 03:28:09;;;;;;;4.15;2.58;;;3.50;99.90;;;;;;4892291;29;20228;-83
2020/12/30 03:30:35;;;;;;;3.00;2.72;;;3.50;99.90;;;;;;4891812;29;20215;-84
2020/12/30 03:33:02;;;;;;;3.30;2.00;;;3.50;99.90;;;;;;4891327;29;20211;-83
2020/12/30 03:35:28;;;;;;;4.22;2.60;;;3.50;99.90;;;;;;4892091;29;20217;-84
2020/12/30 03:37:55;;;;;;;1.90;1.80;;;3.50;99.90;;;;;;4891603;29;20244;-84
2020/12/30 03:40:21;;;;;;;2.10;2.00;;;3.50;99.90;;;;;;4894174;29;20222;-84
2020/12/30 03:42:48;;;;;;;2.85;2.65;;;3.50;99.90;;;;;;4894928;29;20211;-84
2020/12/30 03:45:14;;;;;;;2.58;2.40;;;3.50;99.90;;;;;;4894633;29;20211;-84
2020/12/30 03:47:41;;;;;;;1.98;1.88;;;3.40;99.90;;;;;;4894759;29;20236;-84
2020/12/30 03:50:08;;;;;;;1.70;1.60;;;3.40;99.90;;;;;;4894232;29;20212;-84
2020/12/30 03:52:34;;;;;;;2.83;2.20;;;3.30;99.90;;;;;;4893951;29;20222;-84
2020/12/30 03:55:02;;;;;;;1.85;1.75;;;3.20;99.90;;;;;;4894311;29;20212;-84
2020/12/30 03:57:28;;;;;;;1.90;1.80;;;3.20;99.90;;;;;;4893661;29;20260;-84
2020/12/30 03:59:56;;;;;;;3.90;2.08;;;3.20;99.90;;;;;;4894922;29;20243;-84
2020/12/30 04:02:22;;;;;;;2.70;2.50;;;3.20;99.90;;;;;;4896916;29;20209;-84
2020/12/30 04:04:48;;;;;;;1.35;1.25;;;3.10;99.90;;;;;;4897839;29;20216;-84
2020/12/30 04:07:20;;;;;;;1.92;1.55;;;3.10;99.90;;;;;;4898082;29;20242;-84
2020/12/30 04:09:46;;;;;;;3.22;1.95;;;3.10;99.90;;;;;;4897301;29;20208;-84
2020/12/30 04:12:12;;;;;;;1.40;1.30;;;3.10;99.90;;;;;;4897296;29;20208;-84
2020/12/30 04:14:38;;;;;;;1.48;1.38;;;3.10;99.90;;;;;;4897523;29;20211;-84
2020/12/30 04:17:04;;;;;;;2.05;1.38;;;3.20;99.90;;;;;;4897200;29;20232;-84
2020/12/30 04:19:31;;;;;;;1.40;1.30;;;3.20;99.90;;;;;;4897052;29;20232;-84
2020/12/30 04:21:57;;;;;;;1.60;1.45;;;3.20;99.90;;;;;;4897022;29;20216;-84
2020/12/30 04:24:24;;;;;;;1.48;1.35;;;3.10;99.90;;;;;;4896943;29;20216;-84
2020/12/30 04:26:50;;;;;;;2.65;2.08;;;3.10;99.90;;;;;;4897541;29;20231;-84
2020/12/30 04:29:16;;;;;;;2.50;1.60;;;3.10;99.90;;;;;;4897543;29;20208;-84
2020/12/30 04:31:43;;;;;;;1.83;1.73;;;3.10;99.90;;;;;;4897172;29;20223;-84
2020/12/30 04:34:09;;;;;;;4.18;1.70;;;3.20;99.90;;;;;;4896617;29;20237;-84
2020/12/30 04:36:35;;;;;;;2.55;1.52;;;3.10;99.90;;;;;;4897445;29;20238;-84
2020/12/30 04:39:02;;;;;;;1.65;1.55;;;3.20;99.90;;;;;;4897116;29;20224;-84
2020/12/30 04:41:33;;;;;;;2.05;1.85;;;3.20;99.90;;;;;;4896400;29;20211;-85
2020/12/30 04:44:01;;;;;;;2.15;1.75;;;3.30;99.90;;;;;;4896129;29;20204;-85
2020/12/30 04:46:28;;;;;;;2.88;2.05;;;3.30;99.90;;;;;;4896094;29;20235;-85
2020/12/30 04:49:04;;;;;;;2.15;1.83;;;3.30;99.90;;;;;;4896327;29;20212;-85
2020/12/30 04:51:39;;;;;;;1.80;1.70;;;3.30;99.90;;;;;;4896104;29;20215;-86
2020/12/30 04:54:23;;;;;;;2.67;1.65;;;3.40;99.90;;;;;;4896431;29;20205;-85
2020/12/30 04:57:26;;;;;;;2.17;2.00;;;3.40;99.90;;;;;;4895862;29;20619;-86
2020/12/30 05:00:28;;;;;;;2.35;1.98;;;3.40;99.90;;;;;;4893817;29;20231;-85
2020/12/30 05:03:12;;;;;;;2.88;2.67;;;3.30;99.90;;;;;;4896288;29;20657;-86
2020/12/30 05:05:52;;;;;;;;;;;;;;;;;;;;;
2020/12/30 05:09:13;;;;;;;;;;;;;;;;;;;;;
2020/12/30 05:11:45;;;;;;;3.10;2.30;;;3.30;99.90;;;;;;4893950;29;20276;-85
2020/12/30 05:14:14;;;;;;;3.53;2.70;;;3.30;99.90;;;;;;4896751;29;20201;-85
2020/12/30 05:16:40;;;;;;;2.67;2.47;;;3.20;99.90;;;;;;4896178;29;20239;-85
2020/12/30 05:19:06;;;;;;;1.35;1.25;;;3.20;99.90;;;;;;4896347;29;20699;-85
2020/12/30 05:21:33;;;;;;;1.83;1.73;;;3.10;99.90;;;;;;4895511;29;20415;-85
2020/12/30 05:24:00;;;;;;;1.90;1.70;;;3.00;99.90;;;;;;4896254;29;20216;-86
2020/12/30 05:26:32;;;;;;;2.00;1.80;;;3.00;99.90;;;;;;4896140;29;20236;-86
2020/12/30 05:29:01;;;;;;;3.33;1.80;;;3.00;99.90;;;;;;4895687;29;20213;-85
2020/12/30 05:31:39;;;;;;;;;;;;;;;;;;;;;
2020/12/30 05:34:33;;;;;;;2.20;2.03;;;3.00;99.90;;;;;;4895527;29;20235;-85
2020/12/30 05:36:59;;;;;;;2.35;2.15;;;3.00;99.90;;;;;;4856748;29;20274;-85
2020/12/30 05:39:38;;;;;;;3.33;2.13;;;3.00;99.90;;;;;;4880356;29;20232;-85
2020/12/30 05:42:18;;;;;;;1.60;1.50;;;3.00;99.90;;;;;;4895103;29;20276;-86
2020/12/30 05:44:48;;;;;;;2.85;2.20;;;3.00;99.90;;;;;;4895208;29;20304;-85
2020/12/30 05:47:33;;;;;;;7.90;2.88;;;3.00;99.90;;;;;;4895623;29;20235;-85
2020/12/30 05:50:15;;;;;;;;;;;;;;;;;;;;;
2020/12/30 05:53:13;;;;;;;2.38;2.05;;;3.10;99.90;;;;;;4891543;29;20243;-85
2020/12/30 05:56:00;;;;;;;2.55;1.20;;;3.10;99.90;;;;;;4856263;29;20307;-85
2020/12/30 05:58:55;;;;;;;2.13;1.65;;;3.20;99.90;;;;;;4882804;29;20243;-85
2020/12/30 06:01:48;;;;;;;;;;;;;;;;;;;;;
2020/12/30 06:04:28;;;;;;;6.22;1.70;;;3.10;99.90;;;;;;4894087;29;20247;-85
2020/12/30 06:07:03;;;;;;;1.52;1.42;;;3.20;99.90;;;;;;4895449;29;20231;-85
2020/12/30 06:09:38;;;;;;;1.48;1.35;;;3.20;99.90;;;;;;4894693;29;20227;-85
2020/12/30 06:12:16;;;;;;;;;;;;;;;;;;;;;
2020/12/30 06:14:45;;;;;;;2.10;1.55;;;3.20;99.90;;;;;;4894145;29;20637;-85
2020/12/30 06:17:24;;;;;;;1.58;1.48;;;3.20;99.90;;;;;;4895333;29;20287;-85
2020/12/30 06:19:54;;;;;;;3.90;1.60;;;3.20;99.90;;;;;;4894640;29;20243;-85
2020/12/30 06:22:21;;;;;;;2.13;2.03;;;3.20;99.90;;;;;;4893814;29;20215;-85
2020/12/30 06:24:52;;;;;;;2.75;1.75;;;3.20;99.90;;;;;;4895382;29;20263;-85
2020/12/30 06:27:20;;;;;;;2.20;2.00;;;3.20;99.90;;;;;;4894910;29;20227;-85
2020/12/30 06:29:46;;;;;;;3.00;2.35;;;3.20;99.90;;;;;;4896201;29;20208;-85
2020/12/30 06:32:28;;;;;;;4.18;2.50;;;3.20;99.90;;;;;;4895652;29;20212;-85
2020/12/30 06:34:55;;;;;;;2.28;2.08;;;3.20;99.90;;;;;;4896248;29;20208;-85
2020/12/30 06:37:32;;;;;;;1.65;1.55;;;3.20;99.90;;;;;;4897758;29;20251;-85
2020/12/30 06:40:21;;;;;;;2.35;1.98;;;3.20;99.90;;;;;;4895034;29;20260;-85
2020/12/30 06:42:52;;;;;;;2.35;2.25;;;3.20;99.90;;;;;;4894749;29;20208;-85
2020/12/30 06:45:51;;;;;;;2.25;2.15;;;3.20;99.90;;;;;;4894410;29;20234;-85
2020/12/30 06:48:34;;;;;;;2.38;2.20;;;3.20;99.90;;;;;;4894205;29;20214;-85
2020/12/30 06:51:17;;;;;;;1.85;1.75;;;3.20;99.90;;;;;;4894961;29;20220;-85
2020/12/30 06:54:07;;;;;;;;;;;;;;;;;;;;;
2020/12/30 07:00:09;;;;;;;;;;;;;;;;;;;;;
2020/12/30 07:03:19;;;;;;;3.00;2.53;;;3.20;99.90;;;;;;4893387;29;20240;-85
2020/12/30 07:09:43;;;;;;;;;;;;;;;;;;;;;
2020/12/30 07:32:37;;;;;;;;;;;;;;;;;;;;;
2020/12/30 07:52:25;;;;;;;2.70;2.50;;;2.90;99.90;;;;;;6159766;22;5176419;-85
2020/12/30 07:55:03;;;;;;;2.88;2.67;;;3.40;99.90;;;;;;6154439;23;20218;-85
2020/12/30 07:58:10;;;;;;;1.48;1.38;;;3.50;99.90;;;;;;6242902;22;20221;-84
2020/12/30 08:00:47;;;;;;;1.98;1.83;;;3.50;99.90;;;;;;6324273;22;20210;-84
2020/12/30 08:06:34;;;;;;;1.88;1.75;;;3.50;99.90;;;;;;6322463;22;20644;-84
2020/12/30 08:09:16;;;;;;;2.05;1.95;;;3.60;99.90;;;;;;6321522;22;20182;-84
2020/12/30 08:11:52;;;;;;;1.73;1.63;;;3.60;99.90;;;;;;6321968;22;20235;-82
2020/12/30 08:14:23;;;;;;;6.22;2.50;;;3.60;99.90;;;;;;6322461;22;20164;-82
2020/12/30 08:17:01;;;;;;;1.83;1.70;;;3.60;99.90;;;;;;6325424;22;20251;-85
2020/12/30 08:19:35;;;;;;;3.17;1.45;;;3.60;99.90;;;;;;6330537;22;20235;-86
2020/12/30 08:22:10;;;;;;;1.60;1.50;;;3.70;99.90;;;;;;6329682;22;20160;-83
2020/12/30 08:24:39;;;;;;;2.85;2.60;;;3.60;99.90;;;;;;6327417;22;20171;-84
2020/12/30 08:27:07;;;;;;;2.25;2.15;;;3.60;99.90;;;;;;6329052;22;20209;-86
2020/12/30 08:29:36;;;;;;;3.17;2.58;;;3.60;99.90;;;;;;6325342;22;20182;-85
2020/12/30 08:32:07;;;;;;;1.90;1.73;;;3.60;99.90;;;;;;6326104;22;20180;-85
2020/12/30 08:34:39;;;;;;;2.00;1.77;;;3.70;99.90;;;;;;6329440;22;20519;-85
2020/12/30 08:37:09;;;;;;;1.35;1.35;;;3.70;99.90;;;;;;6327814;22;20209;-84
2020/12/30 08:39:43;;;;;;;1.98;1.75;;;3.90;99.90;;;;;;6327001;22;20184;-84
2020/12/30 08:42:31;;;;;;;3.00;2.10;;;3.90;99.90;;;;;;6327569;22;20167;-84
2020/12/30 08:45:01;;;;;;;1.90;1.80;;;4.10;99.90;;;;;;6328088;22;20164;-82
2020/12/30 08:47:33;;;;;;;2.10;1.90;;;4.10;99.90;;;;;;6326995;22;20679;-84
2020/12/30 08:50:02;;;;;;;2.45;1.50;;;4.10;99.90;;;;;;6327050;22;20175;-84
2020/12/30 08:52:28;;;;;;;2.25;1.90;;;4.20;99.90;;;;;;6324963;22;20190;-83
2020/12/30 08:55:06;;;;;;;1.48;1.38;;;4.40;99.90;;;;;;6329886;22;20182;-84
2020/12/30 17:22:12;;;;;;;3.67;3.38;;;4.00;99.90;;;;;;6248353;22;20371;-86
2020/12/30 20:30:25;;;;;;;2.50;2.30;;;4.00;99.90;;;;;;5753744;24;20196;-87
2020/12/30 20:36:51;;;;;;;;;;;;;;;;;;;;;
2020/12/30 21:35:08;;;;;;;;;;;;;;;;;;;;;
2020/12/30 21:45:19;;;;;;;4.15;3.72;;;3.20;99.90;;;;;;6207336;22;20275;-86
2020/12/30 21:48:11;;;;;;;4.50;4.10;;;3.00;99.90;;;;;;6129994;23;20247;-86
2020/12/30 23:32:17;;;;;;;;;;;;;;;;;;;;;
2020/12/30 23:38:27;;;;;;;8.05;5.65;;;3.70;99.90;;;;;;6234745;22;20201;-86
2020/12/30 23:43:59;;;;;;;6.30;5.70;;;3.60;99.90;;;;;;6187528;23;20177;-86
2020/12/30 23:46:34;;;;;;;6.45;5.95;;;3.60;99.90;;;;;;6254563;23;20225;-86
2020/12/30 23:49:32;;;;;;;7.25;6.55;;;3.60;99.90;;;;;;6255329;23;20221;-86
2020/12/30 23:52:24;;;;;;;6.50;6.00;;;3.50;99.90;;;;;;6254567;23;20212;-86
2020/12/30 23:55:21;;;;;;;6.90;5.82;;;3.60;99.90;;;;;;6253607;23;20257;-86
2020/12/30 23:58:14;;;;;;;6.57;4.90;;;3.60;99.90;;;;;;6254080;23;20197;-86
